createdAt,value
2018-09-27T00:01:41.591Z,64.27
2018-09-27T00:04:10.311Z,64.22
2018-09-27T00:06:38.958Z,63.24
2018-09-27T00:09:08.482Z,64.70
2018-09-27T00:11:37.224Z,65.32
2018-09-27T00:14:05.857Z,65.03
2018-09-27T00:16:34.521Z,65.44
2018-09-27T00:19:03.268Z,66.62
2018-09-27T00:21:32.024Z,66.37
2018-09-27T00:24:00.692Z,66.28
2018-09-27T00:26:29.318Z,65.68
2018-09-27T00:28:58.111Z,67.27
2018-09-27T00:31:26.813Z,65.52
2018-09-27T00:33:55.465Z,66.55
2018-09-27T00:36:24.105Z,66.10
2018-09-27T00:38:52.840Z,66.28
2018-09-27T00:41:21.519Z,66.12
2018-09-27T00:43:50.166Z,66.75
2018-09-27T00:46:18.937Z,66.81
2018-09-27T00:48:47.631Z,67.02
2018-09-27T00:51:16.324Z,67.21
2018-09-27T00:53:45.061Z,67.46
2018-09-27T00:56:13.696Z,67.97
2018-09-27T00:58:42.504Z,68.44
2018-09-27T01:01:11.236Z,67.87
2018-09-27T01:03:39.885Z,68.13
2018-09-27T01:06:08.583Z,68.79
2018-09-27T01:08:37.301Z,69.04
2018-09-27T01:11:06.041Z,70.18
2018-09-27T01:13:34.732Z,68.43
2018-09-27T01:16:03.482Z,68.39
2018-09-27T01:18:32.205Z,69.25
2018-09-27T01:21:00.919Z,68.91
2018-09-27T01:23:29.603Z,69.32
2018-09-27T01:25:58.243Z,69.61
2018-09-27T01:28:27.048Z,69.34
2018-09-27T01:30:55.723Z,70.14
2018-09-27T01:33:24.435Z,69.92
2018-09-27T01:35:53.268Z,70.00
2018-09-27T01:38:21.988Z,70.08
2018-09-27T01:40:50.656Z,70.44
2018-09-27T01:43:19.458Z,71.06
2018-09-27T01:45:48.233Z,70.19
2018-09-27T01:48:16.970Z,71.09
2018-09-27T01:50:45.660Z,70.16
2018-09-27T01:53:14.376Z,70.25
2018-09-27T01:55:43.136Z,70.66
2018-09-27T01:58:11.842Z,71.09
2018-09-27T02:00:40.652Z,71.62
2018-09-27T02:03:09.458Z,71.41
2018-09-27T02:05:38.212Z,71.50
2018-09-27T02:08:07.017Z,72.21
2018-09-27T02:10:35.782Z,72.92
2018-09-27T02:13:04.532Z,71.83
2018-09-27T02:15:33.213Z,72.55
2018-09-27T02:18:01.925Z,73.56
2018-09-27T02:20:30.635Z,73.85
2018-09-27T02:22:59.405Z,73.29
2018-09-27T02:25:28.146Z,73.81
2018-09-27T02:27:56.936Z,74.16
2018-09-27T02:30:25.662Z,74.12
2018-09-27T02:32:54.387Z,74.91
2018-09-27T02:35:23.100Z,74.05
2018-09-27T02:37:51.846Z,74.26
2018-09-27T02:40:20.504Z,73.54
2018-09-27T02:42:49.184Z,74.08
2018-09-27T02:45:17.929Z,73.38
2018-09-27T02:47:46.736Z,73.03
2018-09-27T02:50:15.413Z,74.09
2018-09-27T02:52:44.176Z,73.26
2018-09-27T02:55:13.044Z,73.33
2018-09-27T02:57:41.728Z,72.83
2018-09-27T03:00:10.509Z,72.46
2018-09-27T03:02:39.155Z,72.34
2018-09-27T03:05:08.120Z,72.25
2018-09-27T03:07:37.008Z,73.08
2018-09-27T03:10:06.006Z,72.08
2018-09-27T03:12:34.716Z,73.19
2018-09-27T03:15:03.476Z,72.00
2018-09-27T03:17:32.128Z,72.18
2018-09-27T03:20:00.809Z,72.22
2018-09-27T03:22:29.624Z,73.09
2018-09-27T03:24:58.333Z,72.81
2018-09-27T03:27:27.108Z,72.90
2018-09-27T03:29:55.786Z,72.02
2018-09-27T03:32:24.457Z,70.80
2018-09-27T03:34:53.141Z,71.82
2018-09-27T03:37:21.779Z,72.19
2018-09-27T03:39:50.539Z,72.44
2018-09-27T03:42:19.205Z,71.96
2018-09-27T03:44:47.904Z,72.60
2018-09-27T03:47:16.543Z,71.50
2018-09-27T03:49:45.226Z,72.51
2018-09-27T03:52:13.990Z,73.35
2018-09-27T03:54:42.796Z,73.31
2018-09-27T03:57:11.499Z,73.53
2018-09-27T03:59:40.250Z,73.80
2018-09-27T04:02:08.909Z,74.38
2018-09-27T04:04:37.663Z,75.46
2018-09-27T04:07:06.348Z,73.59
2018-09-27T04:09:35.095Z,73.96
2018-09-27T04:12:04.533Z,72.58
2018-09-27T04:14:34.373Z,73.08
2018-09-27T04:17:03.120Z,73.75
2018-09-27T04:19:31.806Z,74.24
2018-09-27T04:22:00.568Z,74.98
2018-09-27T04:24:29.336Z,74.20
2018-09-27T04:26:58.092Z,74.53
2018-09-27T04:29:26.820Z,73.43
2018-09-27T04:31:55.464Z,72.71
2018-09-27T04:34:24.218Z,70.70
2018-09-27T04:36:52.954Z,70.34
2018-09-27T04:39:21.652Z,69.60
2018-09-27T04:41:50.335Z,68.17
2018-09-27T04:44:19.055Z,66.72
2018-09-27T04:46:47.758Z,67.61
2018-09-27T04:49:16.428Z,65.99
2018-09-27T04:51:45.156Z,65.42
2018-09-27T04:54:13.862Z,64.71
2018-09-27T04:56:42.504Z,63.72
2018-09-27T04:59:11.249Z,62.89
2018-09-27T05:01:40.001Z,62.80
2018-09-27T05:04:08.993Z,62.78
2018-09-27T05:06:37.685Z,62.12
2018-09-27T05:09:07.635Z,61.88
2018-09-27T05:11:36.296Z,60.58
2018-09-27T05:14:05.108Z,59.58
2018-09-27T05:16:33.805Z,58.90
2018-09-27T05:19:02.617Z,58.30
2018-09-27T05:21:31.451Z,57.69
2018-09-27T05:24:00.249Z,57.62
2018-09-27T05:26:28.983Z,56.65
2018-09-27T05:28:57.749Z,56.57
2018-09-27T05:31:26.506Z,55.53
2018-09-27T05:33:55.197Z,56.21
2018-09-27T05:36:23.990Z,56.00
2018-09-27T05:38:52.813Z,56.38
2018-09-27T05:41:21.523Z,55.54
2018-09-27T05:43:50.235Z,55.30
2018-09-27T05:46:18.899Z,54.36
2018-09-27T05:48:47.600Z,53.43
2018-09-27T05:51:16.373Z,52.65
2018-09-27T05:53:45.083Z,52.47
2018-09-27T05:56:13.728Z,52.38
2018-09-27T05:58:42.410Z,52.67
2018-09-27T06:01:11.160Z,51.76
2018-09-27T06:03:39.941Z,51.53
2018-09-27T06:06:08.735Z,52.24
2018-09-27T06:08:37.418Z,51.26
2018-09-27T06:11:06.205Z,50.50
2018-09-27T06:13:34.970Z,49.45
2018-09-27T06:16:03.865Z,50.08
2018-09-27T06:18:32.585Z,49.09
2018-09-27T06:21:01.463Z,48.90
2018-09-27T06:23:30.123Z,48.67
2018-09-27T06:25:59.081Z,47.83
2018-09-27T06:28:27.796Z,47.48
2018-09-27T06:30:56.521Z,47.31
2018-09-27T06:33:25.285Z,46.96
2018-09-27T06:35:53.993Z,46.46
2018-09-27T06:38:22.624Z,46.35
2018-09-27T06:40:51.348Z,45.63
2018-09-27T06:43:20.105Z,45.06
2018-09-27T06:45:48.788Z,45.88
2018-09-27T06:48:17.536Z,44.71
2018-09-27T06:50:46.216Z,46.04
2018-09-27T06:53:14.913Z,46.31
2018-09-27T06:55:43.660Z,46.34
2018-09-27T06:58:12.318Z,45.49
2018-09-27T07:00:41.063Z,45.89
2018-09-27T07:03:09.779Z,44.49
2018-09-27T07:05:38.521Z,44.14
2018-09-27T07:08:07.268Z,44.39
2018-09-27T07:10:35.997Z,42.45
2018-09-27T07:13:04.806Z,41.96
2018-09-27T07:15:33.598Z,41.68
2018-09-27T07:18:03.676Z,41.84
2018-09-27T07:20:32.421Z,40.99
2018-09-27T07:23:01.300Z,40.21
2018-09-27T07:25:29.978Z,39.12
2018-09-27T07:27:59.209Z,39.73
2018-09-27T07:30:27.950Z,39.66
2018-09-27T07:32:56.646Z,38.56
2018-09-27T07:35:25.327Z,37.42
2018-09-27T07:37:54.255Z,37.52
2018-09-27T07:40:23.094Z,37.91
2018-09-27T07:42:51.828Z,37.56
2018-09-27T07:45:20.425Z,36.53
2018-09-27T07:47:49.090Z,36.33
2018-09-27T07:50:17.796Z,35.69
2018-09-27T07:52:46.509Z,35.41
2018-09-27T07:55:15.144Z,35.55
2018-09-27T07:57:43.829Z,33.13
2018-09-27T08:00:14.849Z,33.32
2018-09-27T08:02:43.729Z,33.02
2018-09-27T08:05:12.323Z,32.11
2018-09-27T08:07:40.980Z,31.70
2018-09-27T08:10:09.329Z,32.12
2018-09-27T08:12:37.959Z,30.51
2018-09-27T08:15:06.686Z,30.52
2018-09-27T08:17:35.447Z,31.89
2018-09-27T08:20:04.460Z,31.17
2018-09-27T08:22:33.327Z,30.13
2018-09-27T08:25:01.967Z,30.12
2018-09-27T08:27:30.622Z,30.65
2018-09-27T08:29:59.360Z,30.54
2018-09-27T08:32:28.036Z,30.17
2018-09-27T08:34:56.793Z,30.19
2018-09-27T08:37:25.502Z,31.47
2018-09-27T08:39:54.218Z,31.36
2018-09-27T08:42:22.932Z,30.42
2018-09-27T08:44:51.760Z,29.86
2018-09-27T08:47:20.405Z,29.36
2018-09-27T08:49:49.191Z,30.78
2018-09-27T08:52:17.969Z,30.78
2018-09-27T08:54:46.870Z,30.07
2018-09-27T08:57:15.872Z,29.11
2018-09-27T08:59:44.643Z,27.42
2018-09-27T09:02:13.332Z,27.90
2018-09-27T09:04:42.094Z,27.98
2018-09-27T09:07:10.965Z,27.61
2018-09-27T09:09:39.757Z,27.85
2018-09-27T09:12:09.369Z,26.71
2018-09-27T09:14:38.119Z,27.87
2018-09-27T09:17:06.905Z,27.58
2018-09-27T09:19:35.603Z,27.61
2018-09-27T09:22:04.286Z,26.77
2018-09-27T09:24:33.014Z,27.28
2018-09-27T09:27:01.844Z,27.69
2018-09-27T09:29:30.636Z,27.25
2018-09-27T09:31:59.413Z,26.24
2018-09-27T09:34:28.172Z,26.33
2018-09-27T09:36:56.865Z,27.37
2018-09-27T09:39:25.596Z,26.00
2018-09-27T09:41:54.425Z,25.84
2018-09-27T09:44:23.252Z,26.15
2018-09-27T09:46:52.097Z,26.75
2018-09-27T09:49:20.757Z,26.04
2018-09-27T09:51:52.580Z,26.36
2018-09-27T09:54:21.226Z,27.39
2018-09-27T09:56:49.930Z,26.53
2018-09-27T09:59:18.587Z,25.54
2018-09-27T10:01:47.401Z,25.89
2018-09-27T10:04:16.100Z,24.95
2018-09-27T10:06:44.808Z,25.26
2018-09-27T10:09:13.565Z,24.20
2018-09-27T10:11:42.353Z,25.12
2018-09-27T10:14:10.996Z,25.09
2018-09-27T10:16:39.666Z,26.04
2018-09-27T10:19:08.433Z,25.31
2018-09-27T10:21:37.175Z,24.83
2018-09-27T10:24:05.908Z,25.71
2018-09-27T10:26:34.627Z,25.07
2018-09-27T10:29:03.339Z,24.19
2018-09-27T10:31:32.021Z,24.06
2018-09-27T10:34:00.734Z,24.21
2018-09-27T10:36:29.412Z,24.60
2018-09-27T10:38:58.145Z,23.64
2018-09-27T10:41:26.809Z,24.95
2018-09-27T10:43:55.439Z,23.59
2018-09-27T10:46:24.227Z,24.32
2018-09-27T10:48:52.961Z,23.69
2018-09-27T10:51:21.750Z,23.73
2018-09-27T10:53:50.416Z,24.73
2018-09-27T10:56:19.180Z,23.36
2018-09-27T10:58:47.953Z,24.36
2018-09-27T11:01:16.728Z,24.07
2018-09-27T11:03:45.511Z,24.08
2018-09-27T11:06:14.171Z,24.35
2018-09-27T11:08:44.726Z,24.06
2018-09-27T11:11:16.310Z,24.28
2018-09-27T11:13:45.035Z,23.61
2018-09-27T11:16:13.781Z,23.43
2018-09-27T11:18:42.535Z,23.36
2018-09-27T11:21:11.302Z,22.09
2018-09-27T11:23:40.116Z,22.41
2018-09-27T11:26:08.928Z,22.24
2018-09-27T11:28:43.020Z,22.48
2018-09-27T11:31:16.928Z,22.35
2018-09-27T11:33:45.656Z,23.40
2018-09-27T11:36:14.491Z,21.77
2018-09-27T11:38:43.292Z,22.08
2018-09-27T11:41:11.945Z,21.64
2018-09-27T11:43:40.641Z,21.94
2018-09-27T11:46:09.508Z,23.09
2018-09-27T11:48:38.344Z,22.78
2018-09-27T11:51:07.070Z,22.12
2018-09-27T11:53:35.781Z,21.79
2018-09-27T11:56:04.578Z,22.33
2018-09-27T11:58:33.366Z,22.31
2018-09-27T12:01:02.198Z,21.63
2018-09-27T12:03:30.857Z,22.19
2018-09-27T12:05:59.606Z,22.25
2018-09-27T12:08:28.176Z,21.34
2018-09-27T12:10:56.924Z,21.28
2018-09-27T12:13:25.859Z,21.31
2018-09-27T12:15:54.693Z,22.70
2018-09-27T12:18:23.506Z,21.96
2018-09-27T12:20:52.288Z,21.75
2018-09-27T12:23:20.982Z,20.94
2018-09-27T12:25:49.618Z,22.08
2018-09-27T12:28:18.570Z,22.45
2018-09-27T12:30:47.403Z,22.06
2018-09-27T12:33:16.109Z,21.42
2018-09-27T12:35:44.901Z,22.13
2018-09-27T12:38:13.607Z,22.93
2018-09-27T12:40:42.460Z,23.49
2018-09-27T12:43:11.218Z,24.00
2018-09-27T12:45:40.120Z,23.30
2018-09-27T12:48:08.842Z,24.10
2018-09-27T12:50:38.339Z,23.47
2018-09-27T12:53:07.197Z,23.96
2018-09-27T12:55:36.445Z,24.23
2018-09-27T12:58:05.170Z,23.79
2018-09-27T13:00:33.916Z,24.12
2018-09-27T13:03:02.786Z,25.44
2018-09-27T13:05:31.443Z,25.76
2018-09-27T13:08:00.204Z,25.58
2018-09-27T13:10:28.860Z,25.78
2018-09-27T13:12:57.736Z,25.87
2018-09-27T13:15:26.533Z,24.97
2018-09-27T13:17:55.304Z,25.43
2018-09-27T13:20:24.085Z,25.22
2018-09-27T13:22:52.846Z,25.58
2018-09-27T13:25:21.660Z,25.56
2018-09-27T13:27:50.384Z,25.32
2018-09-27T13:30:19.186Z,25.62
2018-09-27T13:32:47.839Z,25.28
2018-09-27T13:35:16.666Z,25.84
2018-09-27T13:37:45.370Z,25.13
2018-09-27T13:40:14.045Z,25.37
2018-09-27T13:42:42.721Z,25.38
2018-09-27T13:45:11.464Z,26.30
2018-09-27T13:47:40.200Z,26.08
2018-09-27T13:50:08.987Z,26.25
2018-09-27T13:52:37.806Z,26.51
2018-09-27T13:55:06.833Z,25.36
2018-09-27T13:57:35.517Z,25.73
2018-09-27T14:00:05.666Z,25.29
2018-09-27T14:02:34.321Z,26.00
2018-09-27T14:05:03.028Z,26.28
2018-09-27T14:07:31.740Z,25.90
2018-09-27T14:10:00.383Z,25.31
2018-09-27T14:12:29.873Z,25.49
2018-09-27T14:14:58.545Z,25.38
2018-09-27T14:17:27.302Z,25.51
2018-09-27T14:19:56.105Z,25.05
2018-09-27T14:22:24.957Z,25.44
2018-09-27T14:24:53.631Z,25.43
2018-09-27T14:27:22.376Z,24.53
2018-09-27T14:29:51.008Z,24.65
2018-09-27T14:32:19.745Z,25.08
2018-09-27T14:34:48.478Z,25.11
2018-09-27T14:37:17.311Z,25.54
2018-09-27T14:39:45.990Z,25.64
2018-09-27T14:42:14.732Z,25.25
2018-09-27T14:44:43.516Z,24.88
2018-09-27T14:47:12.289Z,24.97
2018-09-27T14:49:40.951Z,25.12
2018-09-27T14:52:09.641Z,24.49
2018-09-27T14:54:38.412Z,24.35
2018-09-27T14:57:07.261Z,24.26
2018-09-27T14:59:37.040Z,24.98
2018-09-27T15:02:05.843Z,24.88
2018-09-27T15:04:34.639Z,24.64
2018-09-27T15:07:03.312Z,24.40
2018-09-27T15:09:32.134Z,24.30
2018-09-27T15:12:01.022Z,24.65
2018-09-27T15:14:29.855Z,25.05
2018-09-27T15:16:58.598Z,25.53
2018-09-27T15:19:27.333Z,25.27
2018-09-27T15:21:56.029Z,25.67
2018-09-27T15:24:24.701Z,25.46
2018-09-27T15:26:53.409Z,25.69
2018-09-27T15:29:22.077Z,26.07
2018-09-27T15:31:50.993Z,26.65
2018-09-27T15:34:19.901Z,27.28
2018-09-27T15:36:48.604Z,27.02
2018-09-27T15:39:17.783Z,27.74
2018-09-27T15:41:46.502Z,27.83
2018-09-27T15:44:15.219Z,28.12
2018-09-27T15:46:44.031Z,28.21
2018-09-27T15:49:12.828Z,28.56
2018-09-27T15:51:41.658Z,28.88
2018-09-27T15:54:10.397Z,28.95
2018-09-27T15:56:39.214Z,28.96
2018-09-27T15:59:07.904Z,29.22
2018-09-27T16:01:36.637Z,30.11
2018-09-27T16:04:05.369Z,29.77
2018-09-27T16:06:34.107Z,30.51
2018-09-27T16:09:02.933Z,30.01
2018-09-27T16:11:31.628Z,30.75
2018-09-27T16:14:00.280Z,31.26
2018-09-27T16:16:29.009Z,31.38
2018-09-27T16:18:57.810Z,31.63
2018-09-27T16:21:40.965Z,32.46
2018-09-27T16:24:09.785Z,32.23
2018-09-27T16:26:38.477Z,33.25
2018-09-27T16:29:07.453Z,33.23
2018-09-27T16:31:36.321Z,33.83
2018-09-27T16:34:05.918Z,34.06
2018-09-27T16:36:34.836Z,34.37
2018-09-27T16:39:04.753Z,34.72
2018-09-27T16:41:33.465Z,35.23
2018-09-27T16:44:02.202Z,35.09
2018-09-27T16:46:31.009Z,35.56
2018-09-27T16:48:59.792Z,35.17
2018-09-27T16:51:28.532Z,35.66
2018-09-27T16:53:57.233Z,36.17
2018-09-27T16:56:25.962Z,35.77
2018-09-27T16:58:54.646Z,36.39
2018-09-27T17:01:23.302Z,35.84
2018-09-27T17:03:51.974Z,36.02
2018-09-27T17:06:20.698Z,36.12
2018-09-27T17:08:49.390Z,36.32
2018-09-27T17:11:18.057Z,36.78
2018-09-27T17:13:47.262Z,36.90
2018-09-27T17:16:15.950Z,37.28
2018-09-27T17:18:44.671Z,37.60
2018-09-27T17:21:13.368Z,38.34
2018-09-27T17:23:42.120Z,37.63
2018-09-27T17:26:10.802Z,38.38
2018-09-27T17:28:39.536Z,38.46
2018-09-27T17:31:08.617Z,38.28
2018-09-27T17:33:37.255Z,38.12
2018-09-27T17:36:06.014Z,37.79
2018-09-27T17:38:34.761Z,38.09
2018-09-27T17:41:03.478Z,38.80
2018-09-27T17:43:32.277Z,38.48
2018-09-27T17:46:01.003Z,38.68
2018-09-27T17:48:29.632Z,39.26
2018-09-27T17:50:58.349Z,39.29
2018-09-27T17:53:27.085Z,39.27
2018-09-27T17:55:55.707Z,39.34
2018-09-27T17:58:24.433Z,39.96
2018-09-27T18:00:53.193Z,39.46
2018-09-27T18:03:22.026Z,39.65
2018-09-27T18:05:50.810Z,40.24
2018-09-27T18:08:19.525Z,40.65
2018-09-27T18:10:48.269Z,41.00
2018-09-27T18:13:17.051Z,41.51
2018-09-27T18:15:46.084Z,41.12
2018-09-27T18:18:14.838Z,41.01
2018-09-27T18:20:43.520Z,41.43
2018-09-27T18:23:12.386Z,41.35
2018-09-27T18:25:41.471Z,41.90
2018-09-27T18:28:10.531Z,41.41
2018-09-27T18:30:39.315Z,42.62
2018-09-27T18:33:08.048Z,42.79
2018-09-27T18:35:36.753Z,43.05
2018-09-27T18:38:05.634Z,43.92
2018-09-27T18:40:34.370Z,43.75
2018-09-27T18:43:03.238Z,43.90
2018-09-27T18:45:32.188Z,44.33
2018-09-27T18:48:02.041Z,45.05
2018-09-27T18:50:30.803Z,45.58
2018-09-27T18:52:59.567Z,46.10
2018-09-27T18:55:28.311Z,46.51
2018-09-27T18:57:57.022Z,46.83
2018-09-27T19:00:27.195Z,47.15
2018-09-27T19:02:55.972Z,47.00
2018-09-27T19:05:24.745Z,46.46
2018-09-27T19:07:54.171Z,46.16
2018-09-27T19:10:22.900Z,46.28
2018-09-27T19:12:51.723Z,46.35
2018-09-27T19:15:20.712Z,45.63
2018-09-27T19:17:49.954Z,44.92
2018-09-27T19:20:18.659Z,45.42
2018-09-27T19:22:47.485Z,45.41
2018-09-27T19:25:16.201Z,44.47
2018-09-27T19:27:45.050Z,44.33
2018-09-27T19:30:15.137Z,44.53
2018-09-27T19:32:43.835Z,43.62
2018-09-27T19:35:12.624Z,44.81
2018-09-27T19:37:41.449Z,45.53
2018-09-27T19:40:10.212Z,45.63
2018-09-27T19:42:38.922Z,45.66
2018-09-27T19:45:07.712Z,46.03
2018-09-27T19:47:36.551Z,46.41
2018-09-27T19:50:06.213Z,46.74
2018-09-27T19:52:35.277Z,46.61
2018-09-27T19:55:04.004Z,46.44
2018-09-27T19:57:32.805Z,46.96
2018-09-27T20:00:01.516Z,47.70
2018-09-27T20:02:30.342Z,48.46
2018-09-27T20:04:59.141Z,48.97
2018-09-27T20:07:27.793Z,49.61
2018-09-27T20:09:56.513Z,50.11
2018-09-27T20:12:25.574Z,50.48
2018-09-27T20:14:54.219Z,51.00
2018-09-27T20:17:22.927Z,50.98
2018-09-27T20:19:51.669Z,51.15
2018-09-27T20:22:20.426Z,51.24
2018-09-27T20:24:49.172Z,50.73
2018-09-27T20:27:18.040Z,50.29
2018-09-27T20:29:46.728Z,50.26
2018-09-27T20:32:15.561Z,50.24
2018-09-27T20:34:44.242Z,50.49
2018-09-27T20:37:12.995Z,50.13
2018-09-27T20:39:41.665Z,49.95
2018-09-27T20:42:10.405Z,49.68
2018-09-27T20:44:39.048Z,49.82
2018-09-27T20:47:07.836Z,50.31
2018-09-27T20:49:36.604Z,49.94
2018-09-27T20:52:05.387Z,50.29
2018-09-27T20:54:34.099Z,50.44
2018-09-27T20:57:02.859Z,50.25
2018-09-27T20:59:31.708Z,50.08
2018-09-27T21:02:00.396Z,50.33
2018-09-27T21:04:29.198Z,50.53
2018-09-27T21:06:57.835Z,50.04
2018-09-27T21:09:26.464Z,50.00
2018-09-27T21:11:55.249Z,50.73
2018-09-27T21:14:23.864Z,50.72
2018-09-27T21:16:52.542Z,50.29
2018-09-27T21:19:21.376Z,50.56
2018-09-27T21:21:50.085Z,50.98
2018-09-27T21:24:18.852Z,50.86
2018-09-27T21:26:47.564Z,50.40
2018-09-27T21:29:16.284Z,50.74
2018-09-27T21:31:45.087Z,51.18
2018-09-27T21:34:13.774Z,51.19
2018-09-27T21:36:42.510Z,54.13
2018-09-27T21:39:11.226Z,53.93
2018-09-27T21:41:39.921Z,53.47
2018-09-27T21:44:08.632Z,52.70
2018-09-27T21:46:37.363Z,53.07
2018-09-27T21:49:06.064Z,52.93
2018-09-27T21:51:34.818Z,53.00
2018-09-27T21:54:03.533Z,53.07
2018-09-27T21:56:32.273Z,51.44
2018-09-27T21:59:00.979Z,52.19
2018-09-27T22:01:29.703Z,52.64
2018-09-27T22:03:58.544Z,53.26
2018-09-27T22:06:27.327Z,52.68
2018-09-27T22:08:56.008Z,53.03
2018-09-27T22:11:24.769Z,53.12
2018-09-27T22:13:53.492Z,52.29
2018-09-27T22:16:22.168Z,52.25
2018-09-27T22:18:50.815Z,53.38
2018-09-27T22:21:19.534Z,54.02
2018-09-27T22:23:48.267Z,54.29
2018-09-27T22:26:16.995Z,55.30
2018-09-27T22:28:45.784Z,56.02
2018-09-27T22:31:14.551Z,56.88
2018-09-27T22:33:43.329Z,54.83
2018-09-27T22:36:12.153Z,56.15
2018-09-27T22:38:40.800Z,54.86
2018-09-27T22:41:09.505Z,54.76
2018-09-27T22:43:38.388Z,54.76
2018-09-27T22:46:07.227Z,55.49
2018-09-27T22:48:35.964Z,53.98
2018-09-27T22:51:04.691Z,54.05
2018-09-27T22:53:33.475Z,53.46
2018-09-27T22:56:02.336Z,54.20
2018-09-27T22:58:31.095Z,54.09
2018-09-27T23:00:59.810Z,54.12
2018-09-27T23:03:28.557Z,53.72
2018-09-27T23:05:57.207Z,53.50
2018-09-27T23:08:25.911Z,54.35
2018-09-27T23:10:54.757Z,54.39
2018-09-27T23:13:23.443Z,54.39
2018-09-27T23:15:52.260Z,54.59
2018-09-27T23:18:20.892Z,53.51
2018-09-27T23:20:49.628Z,54.70
2018-09-27T23:23:18.263Z,54.19
2018-09-27T23:25:46.908Z,53.61
2018-09-27T23:28:15.564Z,53.48
2018-09-27T23:30:44.371Z,54.54
2018-09-27T23:33:13.092Z,54.19
2018-09-27T23:35:41.731Z,53.91
2018-09-27T23:38:10.372Z,54.45
2018-09-27T23:40:39.174Z,53.90
2018-09-27T23:43:07.872Z,55.01
2018-09-27T23:45:36.541Z,55.56
2018-09-27T23:48:05.243Z,54.62
2018-09-27T23:50:34.039Z,54.53
2018-09-27T23:53:02.811Z,54.98
2018-09-27T23:55:31.524Z,55.69
2018-09-27T23:58:00.184Z,55.48
